This is the latest recevied weather packets stored in our database for station/object SP8AQK-13. If no packets are shown the sender has not sent any weather packets the latest 10 day(s).
| Time | Temp. | Humidity | Pressure | Rain* | Wind** | Luminosity | Snow |
|---|---|---|---|---|---|---|---|
| 1777639409 | 18.33° C | 38% | 1026.1 hPa | - | - | - | - |
| 1777638209 | 18.33° C | 38% | 1026 hPa | - | - | - | - |
| 1777637008 | 17.22° C | 40% | 1026.5 hPa | - | - | - | - |
| 1777635807 | 18.33° C | 38% | 1026.5 hPa | - | - | - | - |
| 1777634606 | 19.44° C | 37% | 1026.4 hPa | - | - | - | - |
| 1777633406 | 18.33° C | 39% | 1026.7 hPa | - | - | - | - |
| 1777632205 | 17.22° C | 40% | 1026.8 hPa | - | - | - | - |
| 1777631004 | 17.22° C | 40% | 1027.1 hPa | - | - | - | - |
| 1777629803 | 17.22° C | 40% | 1027.2 hPa | - | - | - | - |
| 1777628603 | 17.22° C | 40% | 1027.4 hPa | - | - | - | - |
| 1777627402 | 15.56° C | 43% | 1027.8 hPa | - | - | - | - |
| 1777626201 | 15.56° C | 42% | 1028 hPa | - | - | - | - |
| 1777625001 | 14.44° C | 43% | 1028.2 hPa | - | - | - | - |
| 1777622599 | 12.22° C | 46% | 1028.8 hPa | - | - | - | - |
| 1777621399 | 11.67° C | 46% | 1029 hPa | - | - | - | - |
| 1777620198 | 10.56° C | 50% | 1029 hPa | - | - | - | - |
| 1777618997 | 9.44° C | 52% | 1029.2 hPa | - | - | - | - |
| 1777617796 | 8.89° C | 53% | 1029.4 hPa | - | - | - | - |
| 1777616596 | 8.33° C | 54% | 1029.5 hPa | - | - | - | - |
| 1777615395 | 7.22° C | 57% | 1029.8 hPa | - | - | - | - |
| 1777614194 | 6.67° C | 58% | 1029.6 hPa | - | - | - | - |
| 1777612993 | 6.11° C | 60% | 1029.4 hPa | - | - | - | - |
| 1777611793 | 6.11° C | 60% | 1029.6 hPa | - | - | - | - |
| 1777610592 | 5.56° C | 62% | 1029.6 hPa | - | - | - | - |
| 1777609391 | 5° C | 65% | 1029.7 hPa | - | - | - | - |
* Rain since midnight (hover to see other rain measurements)
** Current wind speed in m/s (hover to see current wind gust speed)